KMRBKMTN

Guest
Details From KMRB - Eastern Wv Rgnl Shepherd Fld
To KMTN - Martin State
Flight Number -
Tags decoded
Created
Modified
Stats Distance 73 nm / 136 km
Max Altitude 0 ft / 0 m
Waypoints 4
Social Downloads 1
Likes 0
Share VATSIM

Download

Looking for another format? Having issues loading an existing format? Contact us
Advertisement - Login to hide

Notes

Requested: KMRB MRB V3 EML V268 SLOAF KMTN Unmatched points: V3 V268

Route

KMRB MRB SLOAF KMTN

ID Type Via Altitude Latitude Longitude Leg Dist Tot Dist Heading (true) Name
O KMRB APT - 0 ft / 0 m 39.40190˚ -77.98467˚ - 0 nm - Eastern Wv Rgnl Shepherd Fld
MRB VOR - 0 ft / 0 m 39.38558˚ -77.84836˚ 6 nm 6 nm 99° / 99° MARTINSBURG VORTAC
SLOAF FIX - 0 ft / 0 m 39.36674˚ -76.85136˚ 46 nm 52 nm 91° / 92° -
O KMTN APT - 0 ft / 0 m 39.32566˚ -76.41377˚ 20 nm 73 nm 97° / 97° Martin State

Altitude Profile

Advertisement - Login to hide

KMRB

Details ICAO KMRB (MRB)
Name Eastern Wv Rgnl Shepherd Fld
Region United States
Timezone America/New_York (UTC-4.0)
Stats Elevation 557 ft / 170 m (AMSL)
Location 39.401897° -77.984674°
Runways 1
Magnetic Variation 10.374° W

METAR

KMRB 260553Z AUTO 19005KT 10SM CLR 23/19 A2987 RMK AO2 SLP108 T02280189 10267 20222 57005

Decode

TAF

TAF KMRB 260532Z 2606/2706 21004KT P6SM SCT110 FM261200 23004KT P6SM BKN090 FM261700 21007G15KT P6SM VCTS BKN050CB FM262200 19006KT P6SM BKN060 FM270400 VRB03KT P6SM BKN080

Decode

Departure Runways

ID Width Length Bearing (true) Bearing (mag) Surface Threshold Offset Overrun Length
08 151 ft / 46 m 7,823 ft / 2,384 m 70.57° 80.94° Asphalt 0 ft / 0 m 98 ft / 30 m
26 151 ft / 46 m 7,823 ft / 2,384 m 250.58° 260.95° Asphalt 0 ft / 0 m 374 ft / 114 m

KMTN

Details ICAO KMTN
Name Martin State
Region United States
Timezone America/New_York (UTC-4.0)
Stats Elevation 22 ft / 7 m (AMSL)
Location 39.325658° -76.413768°
Runways 1
Magnetic Variation 11.286° W

METAR

KMTN 260636Z AUTO 14004KT 10SM BKN110 22/21 A2988 RMK AO2

Decode

TAF

KMTN 252333Z 2600/2624 16011KT P6SM FEW150 FM260800 20005KT P6SM SCT080 FM261400 21007KT P6SM BKN070 FM261800 19007KT P6SM -SHRA VCTS BKN050CB AMD NOT SKED 2602/2612

Decode

Destination Runways

ID Width Length Bearing (true) Bearing (mag) Surface Threshold Offset Overrun Length
15 180 ft / 55 m 6,995 ft / 2,132 m 135.28° 146.57° Concrete 0 ft / 0 m 0 ft / 0 m
33 180 ft / 55 m 6,995 ft / 2,132 m 315.29° 326.58° Concrete 0 ft / 0 m 0 ft / 0 m

Approach Navaids

Runway Type Ident Frequency Range Bearing (true) Bearing (mag) Slope Elevation
15 Localiser IBQG 110.70 MHz 18 nm / 33 km 131.88° 143.17° - 22 ft / 7 m (AMSL)
15 DME IBQG 110.70 MHz 18 nm / 33 km - - - 22 ft / 7 m (AMSL)
33 Localiser IMTN 110.70 MHz 18 nm / 33 km 315.28° 326.56° - 22 ft / 7 m (AMSL)
33 Glidescope IMTN 110.70 MHz 10 nm / 19 km 315.28° 326.57° 3.00° 12 ft / 4 m (AMSL)
33 DME IMTN 110.70 MHz 18 nm / 33 km - - - 22 ft / 7 m (AMSL)